createdAt,value
2023-04-03T00:01:23.773Z,100.00
2023-04-03T00:04:51.252Z,100.00
2023-04-03T00:08:19.105Z,100.00
2023-04-03T00:11:28.718Z,100.00
2023-04-03T00:14:37.326Z,100.00
2023-04-03T00:18:05.237Z,100.00
2023-04-03T00:21:13.819Z,100.00
2023-04-03T00:24:41.346Z,100.00
2023-04-03T00:28:09.120Z,100.00
2023-04-03T00:31:38.125Z,100.00
2023-04-03T00:34:45.955Z,100.00
2023-04-03T00:38:13.593Z,100.00
2023-04-03T00:41:41.126Z,100.00
2023-04-03T00:45:09.087Z,100.00
2023-04-03T00:48:36.864Z,100.00
2023-04-03T00:52:04.427Z,100.00
2023-04-03T00:55:32.219Z,100.00
2023-04-03T00:58:59.737Z,100.00
2023-04-03T01:02:27.664Z,100.00
2023-04-03T01:05:55.328Z,100.00
2023-04-03T01:09:23.274Z,100.00
2023-04-03T01:12:12.410Z,100.00
2023-04-03T01:15:40.090Z,100.00
2023-04-03T01:18:48.705Z,100.00
2023-04-03T01:22:16.285Z,100.00
2023-04-03T01:25:24.992Z,100.00
2023-04-03T01:28:14.486Z,100.00
2023-04-03T01:31:24.179Z,100.00
2023-04-03T01:34:13.189Z,100.00
2023-04-03T01:37:05.839Z,100.00
2023-04-03T01:40:33.508Z,100.00
2023-04-03T01:44:01.231Z,100.00
2023-04-03T01:47:28.724Z,100.00
2023-04-03T01:50:56.511Z,100.00
2023-04-03T01:54:24.169Z,100.00
2023-04-03T01:57:32.376Z,100.00
2023-04-03T02:00:59.921Z,100.00
2023-04-03T02:04:27.575Z,100.00
2023-04-03T02:07:56.260Z,100.00
2023-04-03T02:11:23.949Z,100.00
2023-04-03T02:14:47.767Z,100.00
2023-04-03T02:18:16.424Z,100.00
2023-04-03T02:21:44.028Z,100.00
2023-04-03T02:25:12.745Z,100.00
2023-04-03T02:28:40.351Z,100.00
2023-04-03T02:31:56.824Z,100.00
2023-04-03T02:35:20.458Z,100.00
2023-04-03T02:38:47.981Z,100.00
2023-04-03T02:41:55.990Z,100.00
2023-04-03T02:45:19.684Z,100.00
2023-04-03T02:48:47.200Z,100.00
2023-04-03T02:52:14.708Z,100.00
2023-04-03T02:55:42.390Z,100.00
2023-04-03T02:59:09.951Z,100.00
2023-04-03T03:02:37.841Z,100.00
2023-04-03T03:06:05.411Z,100.00
2023-04-03T03:09:33.136Z,100.00
2023-04-03T03:13:00.869Z,100.00
2023-04-03T03:16:28.582Z,100.00
2023-04-03T03:19:56.043Z,100.00
2023-04-03T03:22:25.111Z,100.00
2023-04-03T03:25:33.143Z,100.00
2023-04-03T03:29:00.796Z,100.00
2023-04-03T03:32:28.388Z,100.00
2023-04-03T03:35:56.348Z,100.00
2023-04-03T03:39:23.697Z,100.00
2023-04-03T03:42:51.240Z,100.00
2023-04-03T03:46:18.901Z,100.00
2023-04-03T03:49:48.742Z,100.00
2023-04-03T03:53:16.353Z,100.00
2023-04-03T03:56:44.025Z,100.00
2023-04-03T04:00:11.643Z,100.00
2023-04-03T04:03:35.482Z,100.00
2023-04-03T04:06:51.640Z,100.00
2023-04-03T04:10:19.154Z,100.00
2023-04-03T04:13:08.728Z,100.00
2023-04-03T04:15:58.634Z,100.00
2023-04-03T04:19:26.034Z,100.00
2023-04-03T04:22:34.505Z,100.00
2023-04-03T04:25:42.734Z,100.00
2023-04-03T04:28:33.377Z,100.00
2023-04-03T04:31:42.243Z,100.00
2023-04-03T04:35:09.806Z,100.00
2023-04-03T04:38:37.349Z,100.00
2023-04-03T04:42:04.991Z,100.00
2023-04-03T04:45:32.570Z,100.00
2023-04-03T04:49:00.306Z,100.00
2023-04-03T04:51:52.253Z,100.00
2023-04-03T04:55:17.481Z,100.00
2023-04-03T04:58:26.169Z,100.00
2023-04-03T05:01:54.039Z,100.00
2023-04-03T05:05:21.559Z,100.00
2023-04-03T05:08:49.383Z,100.00
2023-04-03T05:12:16.905Z,100.00
2023-04-03T05:15:25.213Z,100.00
2023-04-03T05:18:52.903Z,100.00
2023-04-03T05:22:20.570Z,100.00
2023-04-03T05:25:30.330Z,100.00
2023-04-03T05:28:39.053Z,100.00
2023-04-03T05:32:06.662Z,100.00
2023-04-03T05:35:15.329Z,100.00
2023-04-03T05:38:42.936Z,100.00
2023-04-03T05:41:51.351Z,100.00
2023-04-03T05:45:18.797Z,100.00
2023-04-03T05:48:46.594Z,100.00
2023-04-03T05:52:14.452Z,100.00
2023-04-03T05:55:41.981Z,100.00
2023-04-03T05:59:09.613Z,100.00
2023-04-03T06:02:37.725Z,100.00
2023-04-03T06:06:05.404Z,100.00
2023-04-03T06:09:32.968Z,100.00
2023-04-03T06:13:00.460Z,100.00
2023-04-03T06:16:12.256Z,100.00
2023-04-03T06:19:39.942Z,100.00
2023-04-03T06:23:08.616Z,100.00
2023-04-03T06:26:23.775Z,100.00
2023-04-03T06:29:51.375Z,100.00
2023-04-03T06:32:41.421Z,100.00
2023-04-03T06:36:09.484Z,100.00
2023-04-03T06:39:37.619Z,100.00
2023-04-03T06:43:07.909Z,100.00
2023-04-03T06:46:35.772Z,100.00
2023-04-03T06:49:45.636Z,100.00
2023-04-03T06:52:55.223Z,100.00
2023-04-03T06:56:22.886Z,100.00
2023-04-03T06:59:50.417Z,100.00
2023-04-03T07:03:18.058Z,100.00
2023-04-03T07:06:45.504Z,100.00
2023-04-03T07:10:13.149Z,100.00
2023-04-03T07:13:22.288Z,100.00
2023-04-03T07:16:49.800Z,100.00
2023-04-03T07:20:17.501Z,100.00
2023-04-03T07:23:26.234Z,100.00
2023-04-03T07:26:53.828Z,100.00
2023-04-03T07:30:03.243Z,100.00
2023-04-03T07:33:12.804Z,100.00
2023-04-03T07:36:22.426Z,100.00
2023-04-03T07:39:50.070Z,100.00
2023-04-03T07:43:17.673Z,100.00
2023-04-03T07:46:45.243Z,100.00
2023-04-03T07:50:12.906Z,100.00
2023-04-03T07:53:40.571Z,100.00
2023-04-03T07:56:30.303Z,100.00
2023-04-03T07:59:57.874Z,100.00
2023-04-03T08:03:05.626Z,100.00
2023-04-03T08:06:45.031Z,100.00
2023-04-03T08:10:00.949Z,100.00
2023-04-03T08:13:28.627Z,100.00
2023-04-03T08:16:56.212Z,100.00
2023-04-03T08:20:05.930Z,100.00
2023-04-03T08:23:33.515Z,100.00
2023-04-03T08:27:01.050Z,100.00
2023-04-03T08:30:09.845Z,100.00
2023-04-03T08:33:37.363Z,100.00
2023-04-03T08:36:46.268Z,100.00
2023-04-03T08:39:34.782Z,100.00
2023-04-03T08:42:44.604Z,100.00
2023-04-03T08:46:12.330Z,99.97
2023-04-03T08:49:39.946Z,99.95
2023-04-03T08:53:08.433Z,100.00
2023-04-03T08:56:16.792Z,99.91
2023-04-03T08:59:40.647Z,99.54
2023-04-03T09:03:10.796Z,98.98
2023-04-03T09:06:35.805Z,98.34
2023-04-03T09:10:03.371Z,96.02
2023-04-03T09:13:30.908Z,95.94
2023-04-03T09:16:59.265Z,95.58
2023-04-03T09:20:26.701Z,93.91
2023-04-03T09:23:54.429Z,92.35
2023-04-03T09:27:22.090Z,91.16
2023-04-03T09:30:37.942Z,91.25
2023-04-03T09:34:05.453Z,90.61
2023-04-03T09:37:33.057Z,89.61
2023-04-03T09:41:00.672Z,89.29
2023-04-03T09:44:08.339Z,88.60
2023-04-03T09:47:36.228Z,89.12
2023-04-03T09:50:44.550Z,88.32
2023-04-03T09:54:12.350Z,86.70
2023-04-03T09:57:39.974Z,86.92
2023-04-03T10:01:07.646Z,85.19
2023-04-03T10:04:35.241Z,85.16
2023-04-03T10:07:48.673Z,85.22
2023-04-03T10:11:11.488Z,85.63
2023-04-03T10:14:39.189Z,83.61
2023-04-03T10:18:17.979Z,82.68
2023-04-03T10:21:34.378Z,82.28
2023-04-03T10:25:02.258Z,82.09
2023-04-03T10:28:29.830Z,80.30
2023-04-03T10:31:57.972Z,79.81
2023-04-03T10:35:25.467Z,80.25
2023-04-03T10:38:37.490Z,80.10
2023-04-03T10:42:16.574Z,80.67
2023-04-03T10:45:33.943Z,78.84
2023-04-03T10:48:45.486Z,78.65
2023-04-03T10:52:13.214Z,78.07
2023-04-03T10:55:24.887Z,79.13
2023-04-03T10:58:48.372Z,78.97
2023-04-03T11:01:56.460Z,78.36
2023-04-03T11:05:04.997Z,77.43
2023-04-03T11:08:13.687Z,77.05
2023-04-03T11:11:09.353Z,75.62
